Time;durP1;ratioP1;P1;durP2;ratioP2;P2;SDS_P1;SDS_P2;PMS_P1;PMS_P2;Temp;Humidity;BMP_temperature;BMP_pressure;BME280_temperature;BME280_humidity;BME280_pressure;Samples;Min_cycle;Max_cycle;Signal;HPM_P1;HPM_P2
2022/03/08 00:01:36;;;;;;;22.20;17.60;;;;;;;4.32;51.75;101554.78;5013489;28;20144;-80
2022/03/08 00:04:03;;;;;;;20.27;17.30;;;;;;;4.03;52.73;101520.22;5012824;28;20053;-79
2022/03/08 00:06:30;;;;;;;20.93;17.90;;;;;;;4.29;52.58;101563.63;5029987;28;20079;-81
2022/03/08 00:08:56;;;;;;;19.13;17.13;;;;;;;4.92;52.76;101673.72;5012339;28;20072;-84
2022/03/08 00:11:24;;;;;;;18.80;15.73;;;;;;;4.87;51.93;101638.91;5012203;28;20128;-81
2022/03/08 00:13:51;;;;;;;22.85;17.17;;;;;;;4.75;51.44;101600.03;5012185;28;20103;-79
2022/03/08 00:16:19;;;;;;;23.63;18.07;;;;;;;5.47;51.33;101690.41;5043081;28;20045;-81
2022/03/08 00:18:49;;;;;;;19.95;17.75;;;;;;;4.97;51.40;101643.72;5032182;28;20049;-81
2022/03/08 00:21:16;;;;;;;24.97;16.67;;;;;;;5.05;51.81;101674.03;5049517;28;20081;-81
2022/03/08 00:23:43;;;;;;;20.73;17.73;;;;;;;5.39;50.80;101682.00;5032871;28;20388;-81
2022/03/08 00:26:10;;;;;;;19.90;16.40;;;;;;;5.17;49.56;101625.19;5032103;28;20132;-80
2022/03/08 00:28:37;;;;;;;21.23;16.87;;;;;;;5.10;50.94;101671.16;5031799;28;20342;-81
2022/03/08 00:31:03;;;;;;;19.33;16.63;;;;;;;5.31;50.93;101743.81;5032734;28;20136;-82
2022/03/08 00:33:30;;;;;;;17.73;15.80;;;;;;;5.00;51.06;101690.94;5032162;28;20048;-82
2022/03/08 00:35:57;;;;;;;18.90;16.63;;;;;;;5.24;50.83;101739.78;5031884;28;20685;-81
2022/03/08 00:38:24;;;;;;;22.50;17.57;;;;;;;5.33;50.97;101747.22;5031625;28;20059;-81
2022/03/08 00:40:51;;;;;;;21.27;18.23;;;;;;;4.49;51.71;101628.44;5031986;28;20049;-81
2022/03/08 00:43:19;;;;;;;23.33;17.90;;;;;;;4.62;52.05;101664.69;5032019;28;20107;-81
2022/03/08 00:45:49;;;;;;;23.60;16.73;;;;;;;4.85;51.88;101719.69;5050676;28;20130;-82
2022/03/08 00:48:17;;;;;;;19.83;16.58;;;;;;;5.08;52.44;101751.97;5034519;28;20120;-82
2022/03/08 00:50:44;;;;;;;19.43;16.63;;;;;;;4.27;52.33;101640.88;5034363;28;20369;-80
2022/03/08 00:53:11;;;;;;;24.93;17.60;;;;;;;5.01;52.13;101758.44;5032573;28;20072;-81
2022/03/08 00:55:38;;;;;;;23.03;17.07;;;;;;;5.06;51.16;101752.03;5031639;28;20088;-80
2022/03/08 00:58:07;;;;;;;23.07;16.90;;;;;;;4.58;51.66;101671.00;5031547;28;20057;-80
2022/03/08 01:00:35;;;;;;;23.40;16.40;;;;;;;4.76;50.82;101680.69;5031931;28;20452;-81
2022/03/08 01:03:02;;;;;;;17.37;15.27;;;;;;;5.36;50.59;101751.47;5030565;28;20106;-82
2022/03/08 01:05:30;;;;;;;20.87;16.17;;;;;;;5.08;50.40;101726.50;5049164;28;20147;-81
2022/03/08 01:07:58;;;;;;;19.97;16.93;;;;;;;5.18;50.89;101758.50;5033124;28;20087;-82
2022/03/08 01:10:28;;;;;;;19.87;16.43;;;;;;;4.10;51.35;101590.84;5033414;28;20350;-82
2022/03/08 01:12:55;;;;;;;20.17;16.03;;;;;;;4.72;51.96;101718.56;5049065;28;20164;-81
2022/03/08 01:15:24;;;;;;;19.17;16.87;;;;;;;4.89;52.53;101757.25;5059324;28;20554;-80
2022/03/08 01:17:51;;;;;;;17.63;15.83;;;;;;;4.70;52.77;101746.72;5068807;28;20059;-81
2022/03/08 01:20:18;;;;;;;18.63;16.17;;;;;;;4.78;52.67;101765.66;5051104;28;20244;-81
2022/03/08 01:22:44;;;;;;;20.50;16.53;;;;;;;4.80;53.26;101770.81;5068823;28;20139;-81
2022/03/08 01:25:13;;;;;;;20.70;16.87;;;;;;;4.24;52.47;101676.03;5050297;28;20164;-81
2022/03/08 01:27:40;;;;;;;18.80;16.80;;;;;;;4.29;52.55;101652.16;5050356;28;20049;-80
2022/03/08 01:30:11;;;;;;;21.47;17.60;;;;;;;4.91;53.30;101772.03;5051017;28;20694;-81
2022/03/08 01:32:38;;;;;;;22.70;17.43;;;;;;;4.97;52.39;101760.34;5050734;28;20054;-81
2022/03/08 01:35:06;;;;;;;21.37;16.80;;;;;;;4.99;51.55;101753.25;5050775;28;20611;-80
2022/03/08 01:37:32;;;;;;;21.23;17.87;;;;;;;5.07;51.80;101758.16;5068184;28;20417;-81
2022/03/08 01:39:59;;;;;;;21.80;16.27;;;;;;;4.50;51.98;101659.06;5050557;28;20488;-81
2022/03/08 01:42:26;;;;;;;19.23;16.27;;;;;;;5.10;52.20;101755.41;5051106;28;20089;-81
2022/03/08 01:44:53;;;;;;;19.43;16.03;;;;;;;5.08;51.37;101736.19;5050820;28;20494;-81
2022/03/08 01:47:22;;;;;;;19.43;16.53;;;;;;;5.26;51.82;101776.56;5050557;28;20141;-82
2022/03/08 01:49:50;;;;;;;22.30;16.47;;;;;;;4.83;51.36;101713.66;5050394;28;20083;-83
2022/03/08 01:52:21;;;;;;;17.90;16.00;;;;;;;5.12;51.08;101778.09;5050114;28;20106;-83
2022/03/08 01:54:48;;;;;;;20.00;16.87;;;;;;;5.20;50.71;101793.50;5050487;28;20045;-81
2022/03/08 01:57:15;;;;;;;20.77;16.07;;;;;;;5.24;49.97;101802.97;5050026;28;20051;-80
2022/03/08 01:59:43;;;;;;;17.93;15.77;;;;;;;4.67;50.65;101720.56;5049584;28;20048;-82
2022/03/08 02:02:12;;;;;;;17.63;15.83;;;;;;;4.83;51.23;101779.44;5033270;28;20418;-80
2022/03/08 02:04:40;;;;;;;21.83;16.77;;;;;;;4.85;51.81;101803.03;5050906;28;20490;-81
2022/03/08 02:07:07;;;;;;;21.53;16.77;;;;;;;4.88;51.29;101806.41;5050491;28;20399;-82
2022/03/08 02:09:34;;;;;;;21.60;16.97;;;;;;;4.44;52.02;101746.13;5050070;28;20486;-80
2022/03/08 02:12:01;;;;;;;18.83;16.93;;;;;;;4.91;50.96;101803.63;5050587;28;20062;-80
2022/03/08 02:14:30;;;;;;;19.17;16.30;;;;;;;4.61;50.98;101770.81;5064394;28;20471;-79
2022/03/08 02:16:57;;;;;;;18.17;16.17;;;;;;;4.35;51.38;101756.22;5048124;28;20152;-81
2022/03/08 02:19:23;;;;;;;17.50;15.70;;;;;;;4.42;51.27;101753.25;5047936;28;20056;-81
2022/03/08 02:21:51;;;;;;;18.70;15.30;;;;;;;4.63;51.38;101790.00;5030238;28;20072;-80
2022/03/08 02:24:18;;;;;;;18.17;15.50;;;;;;;4.90;51.50;101812.44;5029702;28;20131;-81
2022/03/08 02:26:45;;;;;;;19.87;14.67;;;;;;;4.47;51.46;101753.03;5029765;28;20055;-81
2022/03/08 02:29:12;;;;;;;17.87;15.43;;;;;;;4.84;51.59;101802.19;5029229;28;20067;-80
2022/03/08 02:31:39;;;;;;;22.17;16.97;;;;;;;3.92;51.70;101658.25;5030332;28;20320;-80
2022/03/08 02:34:06;;;;;;;17.57;15.67;;;;;;;4.65;52.29;101790.78;5030537;28;20522;-80
2022/03/08 02:36:32;;;;;;;19.37;15.97;;;;;;;4.67;52.26;101796.84;5029790;28;20101;-82
2022/03/08 02:38:59;;;;;;;17.67;15.77;;;;;;;4.72;52.21;101798.34;5029848;28;20111;-81
2022/03/08 02:41:27;;;;;;;19.20;15.77;;;;;;;4.53;52.00;101765.03;5029517;28;20558;-81
2022/03/08 02:43:53;;;;;;;18.23;15.37;;;;;;;4.76;51.97;101787.66;5030065;28;20530;-81
2022/03/08 02:46:21;;;;;;;20.47;15.83;;;;;;;4.84;52.00;101794.28;5029954;28;20540;-80
2022/03/08 02:48:48;;;;;;;18.43;14.90;;;;;;;4.84;51.87;101799.56;5029604;28;20071;-80
2022/03/08 02:51:14;;;;;;;19.63;17.23;;;;;;;4.87;52.16;101801.19;5029631;28;20457;-81
2022/03/08 02:53:41;;;;;;;21.00;16.17;;;;;;;4.40;51.93;101720.91;5029473;28;20049;-81
2022/03/08 02:56:08;;;;;;;19.20;16.60;;;;;;;4.73;52.10;101767.63;5029265;28;20044;-81
2022/03/08 02:58:34;;;;;;;18.03;14.70;;;;;;;4.91;52.41;101793.09;5029665;28;20137;-79
2022/03/08 03:01:01;;;;;;;18.13;15.70;;;;;;;4.74;52.06;101766.72;5046716;28;20558;-80
2022/03/08 03:03:28;;;;;;;19.03;16.40;;;;;;;4.73;52.97;101770.25;5028915;28;20053;-81
2022/03/08 03:05:55;;;;;;;19.73;15.57;;;;;;;4.77;52.99;101782.34;5029723;28;20097;-81
2022/03/08 03:08:22;;;;;;;18.53;16.43;;;;;;;4.75;52.04;101765.78;5029372;28;20176;-80
2022/03/08 03:10:48;;;;;;;18.03;15.40;;;;;;;4.77;51.75;101750.78;5029891;28;20505;-81
2022/03/08 03:13:15;;;;;;;19.70;16.70;;;;;;;5.09;51.72;101786.09;5030166;28;20060;-80
2022/03/08 03:15:42;;;;;;;18.30;16.03;;;;;;;4.95;51.74;101793.78;5016484;28;20103;-80
2022/03/08 03:18:09;;;;;;;18.10;15.47;;;;;;;5.06;51.67;101815.22;5011236;28;20380;-80
2022/03/08 03:20:36;;;;;;;22.40;16.13;;;;;;;4.88;51.79;101780.09;5011602;28;20064;-81
2022/03/08 03:23:03;;;;;;;20.87;15.87;;;;;;;5.27;51.20;101810.72;5014253;28;20292;-79
2022/03/08 03:25:30;;;;;;;19.60;16.50;;;;;;;4.77;51.50;101748.13;5023012;28;20112;-80
2022/03/08 03:27:57;;;;;;;21.03;17.27;;;;;;;4.97;51.63;101791.94;5027268;28;20099;-80
2022/03/08 03:30:23;;;;;;;17.93;16.10;;;;;;;5.35;50.88;101829.63;5023110;28;20045;-81
2022/03/08 03:32:50;;;;;;;18.90;15.87;;;;;;;5.28;51.16;101837.91;5036205;28;20107;-80
2022/03/08 03:35:16;;;;;;;21.57;17.40;;;;;;;5.24;50.79;101831.94;5016401;28;20045;-80
2022/03/08 03:37:45;;;;;;;19.80;16.57;;;;;;;5.13;50.54;101808.72;5016338;28;20084;-80
2022/03/08 03:40:13;;;;;;;19.90;15.60;;;;;;;4.98;51.09;101761.25;5015665;28;20444;-80
2022/03/08 03:42:40;;;;;;;20.53;17.17;;;;;;;5.26;51.06;101822.16;5016172;28;20137;-80
2022/03/08 03:45:08;;;;;;;19.33;15.83;;;;;;;5.28;50.46;101807.16;5016481;28;20069;-81
2022/03/08 03:47:36;;;;;;;20.20;16.70;;;;;;;5.38;50.58;101823.38;5023334;28;20057;-81
2022/03/08 03:50:05;;;;;;;19.03;16.43;;;;;;;4.90;50.53;101751.94;5019071;28;20144;-80
2022/03/08 03:52:32;;;;;;;17.23;15.40;;;;;;;4.54;50.55;101688.72;5016630;28;20053;-81
2022/03/08 03:54:59;;;;;;;18.50;15.73;;;;;;;5.37;50.51;101832.22;5016562;28;20134;-81
2022/03/08 03:57:25;;;;;;;21.20;15.47;;;;;;;5.25;50.47;101815.22;5015872;28;20056;-79
2022/03/08 03:59:52;;;;;;;19.40;16.87;;;;;;;5.01;50.54;101790.03;5033567;28;20053;-82
2022/03/08 04:02:19;;;;;;;20.17;16.00;;;;;;;5.27;50.49;101830.94;5015790;28;20121;-80
2022/03/08 04:04:46;;;;;;;19.47;16.40;;;;;;;5.08;50.92;101815.16;5015925;28;20049;-81
2022/03/08 04:07:13;;;;;;;17.27;14.60;;;;;;;5.28;50.50;101838.75;5015612;28;20140;-79
2022/03/08 04:09:39;;;;;;;20.43;15.87;;;;;;;5.38;50.06;101833.91;5015886;28;20244;-81
2022/03/08 04:12:06;;;;;;;16.30;14.63;;;;;;;5.33;50.29;101825.38;5015014;28;20053;-80
2022/03/08 04:14:33;;;;;;;17.47;15.33;;;;;;;4.76;50.62;101745.56;5015720;28;20037;-80
2022/03/08 04:17:02;;;;;;;17.07;15.37;;;;;;;4.94;51.54;101807.88;5035517;28;20146;-80
2022/03/08 04:19:29;;;;;;;19.93;16.87;;;;;;;5.00;51.23;101835.69;5036164;28;20051;-79
2022/03/08 04:21:55;;;;;;;19.77;15.57;;;;;;;4.58;51.73;101778.84;5035293;28;20045;-81
2022/03/08 04:24:22;;;;;;;17.90;15.10;;;;;;;4.80;51.85;101816.41;5053364;28;20056;-81
2022/03/08 04:26:48;;;;;;;17.70;15.43;;;;;;;4.83;51.77;101815.41;5035423;28;20047;-81
2022/03/08 04:29:15;;;;;;;17.40;15.50;;;;;;;4.49;52.58;101773.09;5034884;28;20044;-81
2022/03/08 04:31:42;;;;;;;21.73;16.03;;;;;;;4.92;52.21;101846.56;5035254;28;20049;-80
2022/03/08 04:34:09;;;;;;;20.23;16.23;;;;;;;4.36;53.20;101768.44;5035621;28;20049;-80
2022/03/08 04:36:36;;;;;;;20.63;16.80;;;;;;;4.70;52.97;101841.41;5035081;28;20136;-81
2022/03/08 04:39:07;;;;;;;20.67;16.43;;;;;;;3.84;52.44;101697.97;5030920;28;20055;-81
2022/03/08 04:41:34;;;;;;;20.13;17.67;;;;;;;3.68;52.49;101660.16;5031040;28;20505;-81
2022/03/08 04:44:01;;;;;;;21.97;16.00;;;;;;;3.36;52.41;101607.25;5049061;28;20514;-81
2022/03/08 04:46:28;;;;;;;21.10;17.73;;;;;;;4.17;52.18;101742.94;5049378;28;20083;-81
2022/03/08 04:48:55;;;;;;;21.23;16.63;;;;;;;3.29;52.35;101600.56;5049720;28;20681;-81
2022/03/08 04:51:21;;;;;;;21.63;18.03;;;;;;;4.55;52.84;101832.44;5031750;28;20584;-80
2022/03/08 04:53:48;;;;;;;19.50;16.70;;;;;;;3.76;53.35;101703.56;5031866;28;20063;-80
2022/03/08 04:56:15;;;;;;;23.07;17.67;;;;;;;4.50;53.68;101851.03;5031452;28;20077;-80
2022/03/08 04:58:42;;;;;;;22.03;17.57;;;;;;;4.22;53.70;101816.34;5031490;28;20064;-79
2022/03/08 05:01:09;;;;;;;21.83;18.23;;;;;;;3.42;53.01;101673.50;5030820;28;20048;-80
2022/03/08 05:03:36;;;;;;;20.43;17.70;;;;;;;3.66;53.42;101722.41;5031093;28;20057;-82
2022/03/08 05:06:05;;;;;;;19.97;17.87;;;;;;;4.24;52.83;101830.28;5031169;28;20126;-79
2022/03/08 05:08:31;;;;;;;22.60;17.70;;;;;;;4.26;53.45;101842.44;5030908;28;20426;-81
2022/03/08 05:10:58;;;;;;;20.07;16.97;;;;;;;2.66;53.82;101590.88;5031415;28;20682;-80
2022/03/08 05:13:26;;;;;;;24.67;16.87;;;;;;;3.77;54.13;101775.34;5048294;28;20454;-80
2022/03/08 05:15:52;;;;;;;21.80;17.43;;;;;;;4.12;54.36;101844.78;5063190;28;20098;-79
2022/03/08 05:18:19;;;;;;;20.97;18.20;;;;;;;3.33;54.84;101721.13;5050366;28;20505;-79
2022/03/08 05:20:46;;;;;;;22.60;18.43;;;;;;;3.76;54.55;101789.38;5050479;28;20132;-80
2022/03/08 05:23:13;;;;;;;20.83;18.23;;;;;;;3.39;54.68;101733.97;5050568;28;20542;-81
2022/03/08 05:25:41;;;;;;;23.47;18.03;;;;;;;2.88;54.80;101664.31;5051123;28;20052;-80
2022/03/08 05:28:08;;;;;;;24.53;19.50;;;;;;;2.47;54.57;101590.75;5051353;28;20049;-80
2022/03/08 05:30:35;;;;;;;22.97;18.23;;;;;;;3.63;54.47;101805.63;5069421;28;20053;-80
2022/03/08 05:33:02;;;;;;;22.77;18.27;;;;;;;2.15;54.93;101578.91;5051626;28;20048;-81
2022/03/08 05:35:29;;;;;;;21.90;17.70;;;;;;;3.64;55.01;101844.13;5051692;28;20418;-81
2022/03/08 05:37:55;;;;;;;22.30;18.40;;;;;;;2.55;54.90;101662.13;5069944;28;20079;-80
2022/03/08 05:40:22;;;;;;;22.40;18.23;;;;;;;3.63;55.31;101852.91;5068876;28;20109;-79
2022/03/08 05:42:49;;;;;;;21.17;17.83;;;;;;;2.94;54.95;101739.31;5051095;28;20044;-83
2022/03/08 05:45:15;;;;;;;21.73;17.23;;;;;;;3.49;55.07;101828.97;5050883;28;20430;-80
2022/03/08 05:47:42;;;;;;;20.90;18.40;;;;;;;3.50;54.95;101830.69;5050633;28;20640;-81
2022/03/08 05:50:11;;;;;;;21.70;17.83;;;;;;;3.66;55.40;101866.84;5050043;28;20136;-79
2022/03/08 05:52:38;;;;;;;21.73;17.30;;;;;;;3.58;55.18;101852.25;5034920;28;20042;-80
2022/03/08 05:55:05;;;;;;;25.20;18.03;;;;;;;3.44;55.51;101836.16;5013004;28;20060;-79
2022/03/08 05:57:32;;;;;;;23.90;18.27;;;;;;;2.85;54.98;101747.53;5045794;28;20133;-81
2022/03/08 05:59:59;;;;;;;20.77;17.13;;;;;;;3.15;55.64;101824.19;4999178;28;20148;-81
2022/03/08 06:02:25;;;;;;;19.17;15.47;;;;;;;3.36;55.35;101862.72;4969606;28;20063;-80
2022/03/08 06:04:52;;;;;;;23.40;17.80;;;;;;;3.46;55.28;101878.97;5026963;28;20576;-80
2022/03/08 06:07:21;;;;;;;20.20;16.13;;;;;;;3.11;55.15;101828.72;5001206;28;20046;-81
2022/03/08 06:09:48;;;;;;;21.03;15.60;;;;;;;3.44;55.35;101878.19;5010315;28;20103;-81
2022/03/08 06:12:14;;;;;;;17.53;15.60;;;;;;;3.40;55.13;101881.84;5008950;28;20107;-80
2022/03/08 06:14:41;;;;;;;19.00;15.97;;;;;;;3.22;54.86;101851.91;5009571;28;20309;-81
2022/03/08 06:17:08;;;;;;;20.80;16.43;;;;;;;3.32;55.37;101865.53;5026562;28;20204;-81
2022/03/08 06:19:35;;;;;;;22.77;15.93;;;;;;;2.74;54.91;101761.03;5008874;28;20531;-81
2022/03/08 06:22:04;;;;;;;21.67;16.70;;;;;;;3.42;54.75;101880.00;5009116;28;20381;-80
2022/03/08 06:24:33;;;;;;;18.80;15.97;;;;;;;3.50;54.86;101888.47;5000446;28;20271;-80
2022/03/08 06:26:59;;;;;;;22.00;16.37;;;;;;;3.26;55.05;101855.28;4990511;28;20598;-80
2022/03/08 06:29:26;;;;;;;21.27;17.23;;;;;;;3.18;55.21;101845.94;4990450;28;20058;-81
2022/03/08 06:31:53;;;;;;;19.93;16.60;;;;;;;3.44;55.29;101891.31;4991204;28;20530;-81
2022/03/08 06:34:20;;;;;;;23.20;16.50;;;;;;;3.43;55.25;101886.97;4991348;28;20137;-82
2022/03/08 06:36:46;;;;;;;18.97;16.87;;;;;;;3.48;55.46;101886.81;4997463;28;20050;-80
2022/03/08 06:39:14;;;;;;;23.63;16.90;;;;;;;3.52;55.38;101891.88;5000484;28;20110;-80
2022/03/08 06:41:43;;;;;;;22.03;15.73;;;;;;;3.60;54.90;101887.19;4996968;28;20116;-82
2022/03/08 06:44:11;;;;;;;19.90;15.50;;;;;;;3.59;54.70;101871.47;4994520;28;20369;-80
2022/03/08 06:46:44;;;;;;;19.30;16.90;;;;;;;3.83;55.21;101906.41;4991519;28;20053;-80
2022/03/08 06:49:11;;;;;;;20.30;16.27;;;;;;;3.89;54.79;101905.34;4990535;28;20145;-81
2022/03/08 06:51:38;;;;;;;25.23;19.07;;;;;;;3.96;54.95;101905.03;4995889;28;20599;-81
2022/03/08 06:54:05;;;;;;;21.80;17.53;;;;;;;4.03;54.09;101911.75;5008178;28;20503;-80
2022/03/08 06:56:36;;;;;;;23.70;17.33;;;;;;;4.04;54.09;101905.56;5009443;28;20053;-82
2022/03/08 06:59:05;;;;;;;20.80;16.97;;;;;;;4.02;53.78;101886.34;5008838;28;20495;-84
2022/03/08 07:01:31;;;;;;;20.20;17.03;;;;;;;4.19;53.42;101903.22;5009055;28;20064;-83
2022/03/08 07:03:58;;;;;;;22.87;17.10;;;;;;;3.99;53.91;101865.47;5008995;28;20415;-82
2022/03/08 07:06:25;;;;;;;26.97;18.60;;;;;;;4.00;54.27;101861.91;5006058;28;20085;-81
2022/03/08 07:08:53;;;;;;;25.73;17.40;;;;;;;4.32;54.34;101901.81;5003152;28;20499;-82
2022/03/08 07:11:20;;;;;;;21.17;16.83;;;;;;;4.07;54.28;101863.38;5009964;28;20519;-81
2022/03/08 07:13:48;;;;;;;22.87;18.43;;;;;;;4.45;53.26;101910.88;4990371;28;20053;-81
2022/03/08 07:16:14;;;;;;;20.97;17.27;;;;;;;4.34;53.40;101894.69;5026363;28;20053;-80
2022/03/08 07:18:41;;;;;;;23.03;17.97;;;;;;;4.41;52.96;101887.41;5010480;28;20049;-81
2022/03/08 07:21:08;;;;;;;22.10;17.37;;;;;;;4.64;53.04;101915.34;4991258;28;20414;-81
2022/03/08 07:23:34;;;;;;;20.37;17.20;;;;;;;4.48;52.92;101876.53;5019376;28;20045;-82
2022/03/08 07:26:01;;;;;;;23.80;19.27;;;;;;;4.72;52.65;101906.19;5025421;28;20072;-82
2022/03/08 07:28:28;;;;;;;24.73;19.00;;;;;;;4.60;52.69;101874.31;5008927;28;20132;-80
2022/03/08 07:31:00;;;;;;;25.38;18.50;;;;;;;4.99;51.94;101928.75;5015770;28;20368;-81
2022/03/08 07:33:28;;;;;;;20.93;18.07;;;;;;;4.33;51.91;101819.38;5005589;28;20595;-81
2022/03/08 07:35:56;;;;;;;23.10;17.53;;;;;;;4.69;51.51;101866.03;5013181;28;20050;-82
2022/03/08 07:38:23;;;;;;;27.90;18.40;;;;;;;5.14;52.00;101933.31;4994469;28;20132;-82
2022/03/08 07:40:50;;;;;;;24.50;16.50;;;;;;;5.19;51.48;101931.31;5028964;28;20045;-81
2022/03/08 07:43:16;;;;;;;23.77;17.33;;;;;;;4.93;51.30;101877.25;5013063;28;20278;-82
2022/03/08 07:45:43;;;;;;;25.37;18.17;;;;;;;4.65;50.99;101819.72;5008375;28;20590;-82
2022/03/08 07:48:10;;;;;;;24.70;18.57;;;;;;;4.45;50.42;101778.53;5013956;28;20045;-83
2022/03/08 07:50:37;;;;;;;22.77;17.17;;;;;;;4.98;50.73;101850.72;5021256;28;20076;-84
2022/03/08 07:53:05;;;;;;;20.47;17.50;;;;;;;5.12;50.08;101864.06;5029741;28;20088;-83
2022/03/08 07:55:32;;;;;;;22.43;18.03;;;;;;;4.15;49.96;101675.59;5028428;28;20503;-83
2022/03/08 07:58:00;;;;;;;20.17;15.83;;;;;;;5.19;48.51;101830.44;5009037;28;20053;-84
2022/03/08 08:00:29;;;;;;;25.77;18.93;;;;;;;5.31;48.80;101841.22;5024842;28;20049;-84
2022/03/08 08:02:57;;;;;;;25.13;17.70;;;;;;;5.89;49.34;101913.16;5023282;28;20446;-84
2022/03/08 08:05:24;;;;;;;21.27;16.73;;;;;;;5.40;48.97;101823.31;4991997;28;20053;-84
2022/03/08 08:07:51;;;;;;;20.98;15.80;;;;;;;5.29;48.17;101805.38;5025505;28;20045;-82
2022/03/08 08:10:18;;;;;;;20.87;15.07;;;;;;;6.25;46.72;101965.91;5008123;28;20053;-82
2022/03/08 08:12:45;;;;;;;21.17;14.60;;;;;;;6.29;46.42;101966.63;5009084;28;20144;-81
2022/03/08 08:15:12;;;;;;;19.10;15.23;;;;;;;6.27;46.00;101955.31;5006863;28;20129;-84
2022/03/08 08:17:39;;;;;;;18.43;13.97;;;;;;;6.28;46.43;101946.44;5010146;28;20115;-83
2022/03/08 08:20:06;;;;;;;15.90;13.82;;;;;;;6.08;45.04;101908.72;5010099;28;20144;-83
2022/03/08 08:22:33;;;;;;;17.42;12.25;;;;;;;5.94;43.96;101898.00;5011070;28;20053;-82
2022/03/08 08:25:04;;;;;;;15.70;10.98;;;;;;;6.20;44.01;101939.75;5011302;28;20554;-82
2022/03/08 08:27:32;;;;;;;15.83;11.53;;;;;;;6.42;44.08;101965.09;5011812;28;20049;-80
2022/03/08 08:29:58;;;;;;;13.50;11.80;;;;;;;6.29;44.29;101937.63;5028044;28;20180;-81
2022/03/08 08:32:26;;;;;;;15.73;12.38;;;;;;;6.54;44.88;101964.47;5010827;28;20059;-83
2022/03/08 08:34:54;;;;;;;14.23;12.40;;;;;;;6.27;44.19;101908.69;5013751;28;20287;-81
2022/03/08 08:37:21;;;;;;;15.30;10.63;;;;;;;6.68;43.16;101955.00;5036931;28;20053;-82
2022/03/08 08:39:48;;;;;;;12.70;11.03;;;;;;;6.53;42.90;101931.09;5016649;28;20163;-82
2022/03/08 08:42:14;;;;;;;15.35;10.88;;;;;;;6.72;42.46;101956.53;5012030;28;20149;-81
2022/03/08 08:44:44;;;;;;;12.95;10.23;;;;;;;6.55;42.98;101925.75;5011369;28;20406;-81
2022/03/08 08:47:12;;;;;;;14.30;11.38;;;;;;;6.81;43.11;101962.19;5010953;28;20132;-83
2022/03/08 08:49:39;;;;;;;15.65;11.75;;;;;;;6.78;42.88;101951.81;5011120;28;20054;-83
2022/03/08 08:52:06;;;;;;;12.45;10.80;;;;;;;6.81;42.56;101950.81;5028469;28;20091;-80
2022/03/08 08:54:33;;;;;;;12.43;9.32;;;;;;;6.94;42.52;101945.72;5027562;28;20050;-81
2022/03/08 08:57:00;;;;;;;13.55;9.95;;;;;;;6.98;41.52;101963.97;5010435;28;20057;-83
2022/03/08 08:59:29;;;;;;;11.95;9.23;;;;;;;6.98;41.51;101950.78;5011286;28;20100;-84
2022/03/08 09:01:56;;;;;;;12.27;9.43;;;;;;;7.03;41.70;101951.38;5010358;28;20084;-82
2022/03/08 09:04:23;;;;;;;7.93;7.13;;;;;;;6.96;40.57;101917.47;5027387;28;20123;-83
2022/03/08 09:06:50;;;;;;;7.85;6.93;;;;;;;7.25;39.84;101945.81;5028108;28;20045;-83
2022/03/08 09:09:17;;;;;;;8.77;6.70;;;;;;;7.33;40.21;101945.44;5010678;28;20088;-83
2022/03/08 09:11:45;;;;;;;7.65;6.85;;;;;;;7.39;40.23;101950.34;5010605;28;20085;-83
2022/03/08 09:14:12;;;;;;;7.70;6.57;;;;;;;7.57;39.16;101950.28;5010340;28;20160;-82
2022/03/08 09:16:40;;;;;;;7.22;6.55;;;;;;;7.66;39.10;101955.06;5010212;28;20470;-83
2022/03/08 09:19:08;;;;;;;8.75;7.22;;;;;;;7.84;38.82;101954.06;5010574;28;20057;-84
2022/03/08 09:21:37;;;;;;;7.97;7.18;;;;;;;7.82;39.24;101950.66;5010151;28;20543;-82
2022/03/08 09:24:04;;;;;;;11.52;8.25;;;;;;;6.84;39.66;101781.69;5027313;28;20053;-81
2022/03/08 09:26:31;;;;;;;10.32;8.50;;;;;;;7.81;39.30;101927.78;5028030;28;20417;-82
2022/03/08 09:28:57;;;;;;;13.20;8.95;;;;;;;8.12;39.82;101936.63;5010103;28;20136;-82
2022/03/08 09:31:27;;;;;;;11.02;8.20;;;;;;;7.72;39.47;101843.72;5027704;28;20142;-81
2022/03/08 09:33:54;;;;;;;10.13;8.82;;;;;;;8.71;39.51;101953.50;5010033;28;20065;-82
2022/03/08 09:36:20;;;;;;;14.15;10.00;;;;;;;8.86;39.67;101949.09;5010705;28;20475;-81
2022/03/08 09:38:47;;;;;;;10.23;8.77;;;;;;;8.76;39.29;101909.06;5011228;28;20103;-83
2022/03/08 09:41:14;;;;;;;11.48;8.73;;;;;;;9.02;38.71;101943.69;5011895;28;20140;-83
2022/03/08 09:43:42;;;;;;;11.82;9.52;;;;;;;8.38;39.31;101833.72;5014464;28;20141;-84
2022/03/08 09:46:09;;;;;;;8.77;7.45;;;;;;;9.01;38.47;101915.50;5029680;28;20054;-82
2022/03/08 09:48:37;;;;;;;7.78;6.88;;;;;;;8.41;37.63;101797.38;5028833;28;20065;-84
2022/03/08 09:51:04;;;;;;;8.82;6.97;;;;;;;9.40;36.78;101943.13;5011174;28;20152;-81
2022/03/08 09:53:34;;;;;;;7.97;6.47;;;;;;;9.32;36.04;101901.22;5040832;28;20063;-83
2022/03/08 09:56:05;;;;;;;8.98;7.13;;;;;;;9.06;36.48;101881.63;5024602;28;20063;-82
2022/03/08 09:58:32;;;;;;;9.77;7.35;;;;;;;8.03;36.84;101697.34;5028480;28;20048;-83
2022/03/08 10:01:02;;;;;;;7.68;4.80;;;;;;;9.24;35.14;101895.53;5025557;28;20077;-83
2022/03/08 10:03:40;;;;;;;8.57;3.67;;;;;;;9.58;33.60;101947.25;5017177;28;20053;-82
2022/03/08 10:06:08;;;;;;;6.10;3.53;;;;;;;9.24;34.35;101916.72;5013538;28;20052;-83
2022/03/08 10:08:35;;;;;;;4.85;4.43;;;;;;;8.41;33.91;101775.34;5011163;28;20464;-83
2022/03/08 10:11:11;;;;;;;4.68;4.18;;;;;;;9.24;33.68;101937.94;5029454;28;20057;-85
2022/03/08 10:13:50;;;;;;;4.45;3.25;;;;;;;9.02;33.47;101901.31;5014638;28;20526;-84
2022/03/08 10:16:41;;;;;;;4.00;3.60;;;;;;;9.45;33.71;101941.03;5019308;28;20037;-82
2022/03/08 10:19:11;;;;;;;4.50;4.10;;;;;;;9.10;33.42;101834.59;5013220;28;20044;-84
2022/03/08 10:21:47;;;;;;;6.05;4.00;;;;;;;9.65;32.76;101846.13;5027163;28;20114;-83
2022/03/08 10:24:25;;;;;;;6.82;3.95;;;;;;;10.33;31.71;101925.63;5009787;28;20047;-82
2022/03/08 10:27:01;;;;;;;4.53;4.10;;;;;;;9.35;32.05;101751.75;5026448;28;20402;-82
2022/03/08 10:29:32;;;;;;;;;;;;;;;10.30;31.95;101928.50;5026627;28;20075;-83
2022/03/08 10:32:22;;;;;;;5.32;4.22;;;;;;;10.24;30.68;101891.72;5008450;28;19969;-83
2022/03/08 10:34:58;;;;;;;4.22;3.83;;;;;;;10.38;31.10;101894.31;5008364;28;20301;-83
2022/03/08 10:37:24;;;;;;;5.03;4.22;;;;;;;10.45;31.10;101873.53;5007938;28;20053;-84
2022/03/08 10:39:54;;;;;;;5.88;4.78;;;;;;;10.80;29.75;101903.00;5009148;28;20498;-83
2022/03/08 10:42:30;;;;;;;4.75;4.20;;;;;;;11.02;30.48;101912.09;5026918;28;20049;-82
2022/03/08 10:45:14;;;;;;;4.38;3.97;;;;;;;10.58;30.31;101815.13;4973966;28;20233;-85
2022/03/08 10:47:53;;;;;;;7.00;4.55;;;;;;;11.13;29.56;101922.84;4989656;28;20054;-85
2022/03/08 10:50:23;;;;;;;5.15;4.75;;;;;;;10.82;30.43;101861.19;4988440;28;20237;-83
2022/03/08 10:52:52;;;;;;;4.95;4.45;;;;;;;11.15;30.37;101904.97;4988443;28;20046;-82
2022/03/08 10:55:28;;;;;;;6.38;4.78;;;;;;;11.30;29.88;101917.16;4991970;28;20527;-84
2022/03/08 10:57:59;;;;;;;6.10;4.30;;;;;;;11.37;29.39;101908.78;5006194;28;20454;-84
2022/03/08 11:00:29;;;;;;;5.88;4.22;;;;;;;11.64;29.33;101897.94;5001615;28;20057;-84
2022/03/08 11:02:59;;;;;;;5.15;4.65;;;;;;;11.63;29.13;101899.75;5004493;28;20499;-84
2022/03/08 11:05:30;;;;;;;4.82;4.32;;;;;;;11.88;28.91;101903.31;5004464;28;20521;-83
2022/03/08 11:08:00;;;;;;;5.15;4.53;;;;;;;10.47;29.58;101648.63;5025314;28;20354;-82
2022/03/08 11:10:29;;;;;;;11.40;5.18;;;;;;;11.95;29.31;101891.25;5024871;28;20145;-83
2022/03/08 11:13:00;;;;;;;6.70;5.25;;;;;;;11.70;29.71;101839.84;5006696;28;20345;-84
2022/03/08 11:15:29;;;;;;;6.47;4.22;;;;;;;11.98;29.45;101883.88;5023956;28;20057;-83
2022/03/08 11:17:57;;;;;;;5.07;4.57;;;;;;;12.30;29.30;101898.41;5005872;28;20136;-84
2022/03/08 11:20:25;;;;;;;6.32;4.93;;;;;;;12.53;28.62;101883.34;5024900;28;20144;-83
2022/03/08 11:22:55;;;;;;;4.60;4.10;;;;;;;11.71;29.13;101747.56;5006800;28;20156;-83